Time;durP1;ratioP1;P1;durP2;ratioP2;P2;SDS_P1;SDS_P2;PMS_P1;PMS_P2;Temp;Humidity;BMP_temperature;BMP_pressure;BME280_temperature;BME280_humidity;BME280_pressure;Samples;Min_cycle;Max_cycle;Signal;HPM_P1;HPM_P2
2021/11/08 00:01:13;;;;;;;;;20.75;17.50;;;;;;;;5062274;28;45943;-68
2021/11/08 00:03:41;;;;;;;;;16.25;16.00;;;;;;;;5061411;28;45466;-69
2021/11/08 00:06:07;;;;;;;;;22.00;17.75;;;;;;;;5063565;28;45590;-68
2021/11/08 00:08:33;;;;;;;;;23.00;21.00;;;;;;;;5073370;28;45451;-68
2021/11/08 00:10:58;;;;;;;;;18.00;16.25;;;;;;;;5073565;28;46284;-69
2021/11/08 00:13:24;;;;;;;;;17.25;15.00;;;;;;;;5073441;28;45311;-69
2021/11/08 00:20:55;;;;;;;;;16.75;16.75;;;;;;;;5073092;28;45585;-69
2021/11/08 00:23:21;;;;;;;;;20.75;15.75;;;;;;;;5072793;28;45524;-68
2021/11/08 00:25:46;;;;;;;;;22.00;16.25;;;;;;;;5069857;28;45498;-69
2021/11/08 00:28:14;;;;;;;;;22.00;15.00;;;;;;;;5073277;28;45488;-68
2021/11/08 00:30:40;;;;;;;;;21.75;19.00;;;;;;;;5063468;28;45558;-69
2021/11/08 00:33:08;;;;;;;;;28.25;21.75;;;;;;;;5062275;28;45906;-69
2021/11/08 00:35:33;;;;;;;;;21.75;15.00;;;;;;;;5064132;28;45569;-68
2021/11/08 00:37:58;;;;;;;;;26.00;19.33;;;;;;;;5051620;28;45446;-68
2021/11/08 00:40:23;;;;;;;;;20.00;16.00;;;;;;;;5064532;28;46231;-69
2021/11/08 00:42:49;;;;;;;;;17.00;14.67;;;;;;;;5067267;28;45513;-68
2021/11/08 00:45:14;;;;;;;;;18.00;14.33;;;;;;;;5071931;27;45894;-68
2021/11/08 00:47:39;;;;;;;;;18.00;16.33;;;;;;;;5063207;28;45329;-69
2021/11/08 00:50:05;;;;;;;;;20.33;16.00;;;;;;;;5075095;28;45942;-68
2021/11/08 00:52:31;;;;;;;;;21.00;17.00;;;;;;;;5073463;28;45788;-68
2021/11/08 00:54:58;;;;;;;;;21.33;18.00;;;;;;;;5066041;28;45410;-68
2021/11/08 00:57:26;;;;;;;;;22.00;21.50;;;;;;;;5074578;28;45414;-69
2021/11/08 00:59:53;;;;;;;;;20.75;19.50;;;;;;;;5068906;28;45466;-69
2021/11/08 01:02:23;;;;;;;;;22.75;19.00;;;;;;;;5071102;28;45838;-68
2021/11/08 01:04:48;;;;;;;;;23.50;18.50;;;;;;;;5057610;28;45423;-69
2021/11/08 01:07:14;;;;;;;;;17.00;16.00;;;;;;;;5075157;28;45569;-68
2021/11/08 01:09:39;;;;;;;;;19.33;15.67;;;;;;;;5075368;28;46945;-68
2021/11/08 01:12:04;;;;;;;;;17.33;17.33;;;;;;;;5073335;27;45310;-68
2021/11/08 01:14:30;;;;;;;;;17.25;16.25;;;;;;;;5059847;28;45276;-68
2021/11/08 01:16:56;;;;;;;;;23.00;19.67;;;;;;;;5067281;28;45958;-68
2021/11/08 01:19:23;;;;;;;;;17.00;16.00;;;;;;;;5069320;27;46207;-68
2021/11/08 01:21:49;;;;;;;;;20.25;18.00;;;;;;;;5069969;28;45781;-68
2021/11/08 01:24:14;;;;;;;;;19.00;17.50;;;;;;;;5073432;28;45447;-68
2021/11/08 01:26:39;;;;;;;;;19.67;16.33;;;;;;;;5071221;28;45786;-69
2021/11/08 01:29:05;;;;;;;;;26.33;15.33;;;;;;;;5073899;28;46189;-68
2021/11/08 01:31:31;;;;;;;;;24.75;20.00;;;;;;;;5071293;27;45493;-68
2021/11/08 01:33:56;;;;;;;;;28.25;17.00;;;;;;;;5068001;28;45461;-68
2021/11/08 01:36:25;;;;;;;;;19.50;17.75;;;;;;;;5068709;28;47558;-68
2021/11/08 01:38:53;;;;;;;;;26.25;19.75;;;;;;;;5071748;28;46123;-68
2021/11/08 01:41:22;;;;;;;;;19.50;17.25;;;;;;;;5068015;28;45549;-68
2021/11/08 01:43:48;;;;;;;;;21.50;17.00;;;;;;;;5068900;28;45734;-68
2021/11/08 01:46:14;;;;;;;;;17.75;13.50;;;;;;;;5073154;28;45479;-68
2021/11/08 01:48:39;;;;;;;;;25.75;16.75;;;;;;;;5064924;28;46870;-68
2021/11/08 01:51:05;;;;;;;;;18.00;16.00;;;;;;;;5064021;28;45386;-68
2021/11/08 01:53:31;;;;;;;;;19.75;14.50;;;;;;;;5067522;28;45956;-69
2021/11/08 01:55:56;;;;;;;;;21.50;20.00;;;;;;;;5058225;28;45437;-69
2021/11/08 01:58:24;;;;;;;;;21.75;18.50;;;;;;;;5061783;28;46382;-69
2021/11/08 02:00:50;;;;;;;;;23.00;20.50;;;;;;;;5063038;28;45895;-69
2021/11/08 02:03:16;;;;;;;;;31.00;20.75;;;;;;;;5070201;28;45319;-69
2021/11/08 02:05:42;;;;;;;;;19.75;16.50;;;;;;;;5062792;28;45799;-69
2021/11/08 02:08:09;;;;;;;;;26.75;22.25;;;;;;;;5069172;28;46192;-69
2021/11/08 02:10:34;;;;;;;;;22.75;20.25;;;;;;;;5070631;28;45346;-69
2021/11/08 02:13:00;;;;;;;;;23.25;20.00;;;;;;;;5069249;27;45696;-68
2021/11/08 02:15:25;;;;;;;;;21.00;18.50;;;;;;;;5069381;28;45544;-68
2021/11/08 02:17:50;;;;;;;;;23.33;20.00;;;;;;;;5065107;28;45465;-69
2021/11/08 02:20:27;;;;;;;;;27.33;19.67;;;;;;;;5065735;28;45365;-69
2021/11/08 02:22:53;;;;;;;;;21.50;20.75;;;;;;;;5057093;28;45422;-68
2021/11/08 02:25:19;;;;;;;;;24.00;24.00;;;;;;;;5067617;28;45516;-69
2021/11/08 02:27:44;;;;;;;;;22.25;19.50;;;;;;;;5069044;28;46291;-68
2021/11/08 02:30:11;;;;;;;;;26.00;21.33;;;;;;;;5067684;28;45644;-69
2021/11/08 02:32:37;;;;;;;;;23.25;19.50;;;;;;;;5071500;28;45437;-68
2021/11/08 02:35:05;;;;;;;;;28.75;22.25;;;;;;;;5067309;27;45428;-68
2021/11/08 02:37:30;;;;;;;;;34.75;24.00;;;;;;;;5057767;28;46089;-68
2021/11/08 02:39:56;;;;;;;;;27.25;25.00;;;;;;;;5060674;28;45378;-68
2021/11/08 02:42:21;;;;;;;;;26.50;18.75;;;;;;;;5068104;28;45475;-68
2021/11/08 02:44:47;;;;;;;;;25.00;21.33;;;;;;;;5065132;28;45619;-69
2021/11/08 02:47:13;;;;;;;;;28.67;23.33;;;;;;;;5061127;28;46306;-69
2021/11/08 02:49:44;;;;;;;;;26.25;22.75;;;;;;;;5065991;28;45529;-68
2021/11/08 02:52:10;;;;;;;;;34.50;24.00;;;;;;;;5067855;28;45589;-69
2021/11/08 02:54:39;;;;;;;;;30.75;27.25;;;;;;;;5072119;28;45522;-69
2021/11/08 02:57:05;;;;;;;;;28.50;23.75;;;;;;;;5067627;28;46292;-68
2021/11/08 02:59:32;;;;;;;;;23.75;21.75;;;;;;;;5069793;28;45471;-68
2021/11/08 03:01:58;;;;;;;;;24.25;22.25;;;;;;;;5061462;28;45492;-69
2021/11/08 03:04:28;;;;;;;;;29.00;26.00;;;;;;;;5069556;28;45368;-68
2021/11/08 03:06:53;;;;;;;;;28.50;22.50;;;;;;;;5064828;28;46425;-69
2021/11/08 03:09:21;;;;;;;;;25.67;21.33;;;;;;;;5067654;28;45478;-68
2021/11/08 03:11:46;;;;;;;;;35.75;26.50;;;;;;;;5063726;28;45746;-68
2021/11/08 03:14:18;;;;;;;;;29.25;25.50;;;;;;;;5072092;28;45367;-68
2021/11/08 03:16:46;;;;;;;;;31.75;23.75;;;;;;;;5068275;27;46327;-68
2021/11/08 03:19:54;;;;;;;;;26.75;22.00;;;;;;;;5044210;28;46010;-68
2021/11/08 03:22:02;;;;;;;;;29.75;23.75;;;;;;;;5053801;28;45693;-68
2021/11/08 03:27:08;;;;;;;;;39.50;30.00;;;;;;;;5073005;27;45988;-68
2021/11/08 03:29:33;;;;;;;;;29.50;25.50;;;;;;;;5064208;28;45438;-68
2021/11/08 03:32:00;;;;;;;;;29.00;24.00;;;;;;;;5069258;28;45315;-68
2021/11/08 03:34:26;;;;;;;;;30.50;26.00;;;;;;;;5071934;28;45600;-68
2021/11/08 03:36:51;;;;;;;;;31.75;24.00;;;;;;;;5071032;27;46960;-68
2021/11/08 03:39:17;;;;;;;;;26.00;20.67;;;;;;;;5069628;28;45376;-68
2021/11/08 03:41:42;;;;;;;;;24.00;22.25;;;;;;;;5060097;28;45438;-68
2021/11/08 03:44:07;;;;;;;;;31.00;25.50;;;;;;;;5060517;28;45322;-69
2021/11/08 03:46:32;;;;;;;;;26.33;24.33;;;;;;;;5073546;28;46221;-68
2021/11/08 03:48:58;;;;;;;;;36.33;24.67;;;;;;;;5066192;27;45489;-68
2021/11/08 03:51:23;;;;;;;;;26.67;21.00;;;;;;;;5064928;28;45504;-68
2021/11/08 03:53:48;;;;;;;;;34.00;24.50;;;;;;;;5064300;28;45387;-68
2021/11/08 03:56:14;;;;;;;;;32.33;28.67;;;;;;;;5071928;28;46017;-68
2021/11/08 03:58:39;;;;;;;;;35.50;26.75;;;;;;;;5077149;28;45424;-68
2021/11/08 04:01:05;;;;;;;;;33.33;24.67;;;;;;;;5062868;28;45333;-69
2021/11/08 04:03:31;;;;;;;;;32.00;26.00;;;;;;;;5072142;27;45776;-68
2021/11/08 04:05:56;;;;;;;;;34.75;30.00;;;;;;;;5072433;28;45466;-69
2021/11/08 04:08:22;;;;;;;;;39.75;31.00;;;;;;;;5074393;28;45501;-68
2021/11/08 04:10:51;;;;;;;;;30.75;27.00;;;;;;;;5072109;28;45452;-69
2021/11/08 04:13:17;;;;;;;;;35.50;25.75;;;;;;;;5062681;28;45472;-68
2021/11/08 04:15:44;;;;;;;;;30.00;23.50;;;;;;;;5064236;27;45978;-69
2021/11/08 04:18:12;;;;;;;;;30.50;27.25;;;;;;;;5063099;28;45475;-68
2021/11/08 04:20:40;;;;;;;;;34.25;25.00;;;;;;;;5072934;28;45509;-68
2021/11/08 04:23:05;;;;;;;;;31.00;24.75;;;;;;;;5064021;28;45534;-68
2021/11/08 04:25:30;;;;;;;;;27.75;25.75;;;;;;;;5060030;28;45588;-68
2021/11/08 04:27:57;;;;;;;;;26.00;23.67;;;;;;;;5063800;28;45489;-68
2021/11/08 04:30:23;;;;;;;;;30.00;26.75;;;;;;;;5068472;28;45531;-69
2021/11/08 04:35:24;;;;;;;;;29.75;26.75;;;;;;;;5057965;28;45313;-68
2021/11/08 04:40:33;;;;;;;;;30.00;26.25;;;;;;;;5069906;28;45514;-69
2021/11/08 04:43:07;;;;;;;;;30.50;27.50;;;;;;;;5071983;28;45509;-68
2021/11/08 04:48:36;;;;;;;;;33.50;28.00;;;;;;;;5067391;28;47617;-68
2021/11/08 04:54:52;;;;;;;;;32.75;23.25;;;;;;;;4992266;28;45544;-68
2021/11/08 05:24:17;;;;;;;;;29.00;27.00;;;;;;;;4991898;28;45707;-68
2021/11/08 05:31:54;;;;;;;;;29.75;25.75;;;;;;;;5070477;28;45874;-68
2021/11/08 05:34:20;;;;;;;;;29.25;24.75;;;;;;;;5063431;28;45334;-68
2021/11/08 05:36:45;;;;;;;;;28.67;25.33;;;;;;;;5070082;28;45340;-68
2021/11/08 05:39:11;;;;;;;;;29.25;22.25;;;;;;;;5070372;28;45464;-68
2021/11/08 05:41:36;;;;;;;;;36.50;27.50;;;;;;;;5069826;28;45308;-68
2021/11/08 05:44:03;;;;;;;;;29.75;23.25;;;;;;;;5061111;28;45381;-68
2021/11/08 05:46:29;;;;;;;;;29.00;25.50;;;;;;;;5062609;28;45496;-68
2021/11/08 05:48:54;;;;;;;;;30.00;26.75;;;;;;;;5065767;28;46219;-68
2021/11/08 05:51:19;;;;;;;;;30.33;25.67;;;;;;;;5063564;28;45499;-68
2021/11/08 05:53:46;;;;;;;;;34.75;28.75;;;;;;;;5068311;28;45607;-69
2021/11/08 05:56:28;;;;;;;;;31.00;25.75;;;;;;;;5058429;28;45583;-68
2021/11/08 06:48:12;;;;;;;;;25.75;24.50;;;;;;;;5062506;28;45527;-68
2021/11/08 06:50:34;;;;;;;;;45.00;38.50;;;;;;;;5008896;28;45578;-68
2021/11/08 06:53:05;;;;;;;;;41.33;36.00;;;;;;;;5010071;28;45946;-69
2021/11/08 06:55:32;;;;;;;;;38.75;31.75;;;;;;;;5002743;28;45436;-69
2021/11/08 06:58:02;;;;;;;;;48.75;36.25;;;;;;;;5005637;28;45492;-69
2021/11/08 07:00:28;;;;;;;;;43.50;33.75;;;;;;;;5008066;28;45758;-68
2021/11/08 07:02:54;;;;;;;;;45.25;36.25;;;;;;;;5014238;28;45534;-68
2021/11/08 07:05:19;;;;;;;;;40.25;32.25;;;;;;;;5002207;28;45564;-69
2021/11/08 07:07:44;;;;;;;;;39.25;34.75;;;;;;;;5003319;28;45887;-69
2021/11/08 07:10:10;;;;;;;;;47.33;38.00;;;;;;;;5012138;28;45383;-69
2021/11/08 07:12:35;;;;;;;;;44.67;37.33;;;;;;;;5007971;28;46121;-69
2021/11/08 07:15:00;;;;;;;;;47.33;42.33;;;;;;;;5008217;28;45600;-68
2021/11/08 07:17:25;;;;;;;;;28.75;22.00;;;;;;;;5009522;28;45570;-68
2021/11/08 07:19:51;;;;;;;;;49.33;41.67;;;;;;;;5011667;28;45568;-68
2021/11/08 07:22:16;;;;;;;;;57.67;47.00;;;;;;;;5035597;28;46293;-69
2021/11/08 07:24:41;;;;;;;;;54.25;45.00;;;;;;;;5052347;28;45318;-68
2021/11/08 07:27:07;;;;;;;;;55.00;40.33;;;;;;;;5051060;28;45193;-68
2021/11/08 07:29:36;;;;;;;;;46.75;38.50;;;;;;;;5057154;28;45280;-68
2021/11/08 07:32:02;;;;;;;;;55.50;38.75;;;;;;;;5039120;28;45679;-69
2021/11/08 07:34:27;;;;;;;;;57.25;42.50;;;;;;;;5043955;28;45376;-68
2021/11/08 07:36:53;;;;;;;;;50.00;41.67;;;;;;;;5043095;28;45527;-68
2021/11/08 07:39:18;;;;;;;;;56.00;44.50;;;;;;;;5048514;28;45487;-68
2021/11/08 07:41:43;;;;;;;;;62.25;45.75;;;;;;;;5043877;28;45996;-69
2021/11/08 07:44:09;;;;;;;;;60.33;47.33;;;;;;;;5051402;28;45355;-68
2021/11/08 07:46:34;;;;;;;;;58.33;44.67;;;;;;;;5042984;28;45337;-68
2021/11/08 07:48:59;;;;;;;;;54.67;44.67;;;;;;;;5041852;28;45508;-69
2021/11/08 07:51:25;;;;;;;;;52.33;39.67;;;;;;;;5050576;28;45800;-68
2021/11/08 07:53:50;;;;;;;;;59.25;44.75;;;;;;;;5053435;28;45471;-68
2021/11/08 07:56:15;;;;;;;;;53.25;42.00;;;;;;;;5040738;28;45382;-70
2021/11/08 07:58:41;;;;;;;;;65.00;47.00;;;;;;;;5053187;28;45478;-69
2021/11/08 08:01:06;;;;;;;;;59.00;47.75;;;;;;;;5044120;28;45479;-69
2021/11/08 08:03:32;;;;;;;;;67.00;51.25;;;;;;;;5049475;28;45817;-69
2021/11/08 08:05:58;;;;;;;;;61.50;48.00;;;;;;;;5048471;28;45474;-69
2021/11/08 08:08:23;;;;;;;;;60.25;47.50;;;;;;;;5046469;28;45588;-68
2021/11/08 08:10:50;;;;;;;;;59.33;45.67;;;;;;;;5041567;28;46681;-69
2021/11/08 08:13:19;;;;;;;;;46.75;39.25;;;;;;;;5045101;28;45484;-69
2021/11/08 08:15:44;;;;;;;;;54.25;44.50;;;;;;;;5048343;28;45386;-69
2021/11/08 08:18:11;;;;;;;;;55.00;44.33;;;;;;;;5048317;28;45491;-69
2021/11/08 08:20:36;;;;;;;;;53.50;42.00;;;;;;;;5045242;28;47313;-69
2021/11/08 08:23:01;;;;;;;;;48.75;38.00;;;;;;;;5047511;28;45334;-69
2021/11/08 08:25:27;;;;;;;;;54.67;39.00;;;;;;;;5049369;28;45680;-69
2021/11/08 08:27:52;;;;;;;;;42.67;36.00;;;;;;;;5053534;28;45436;-69
2021/11/08 08:30:17;;;;;;;;;45.00;38.00;;;;;;;;5043562;28;45629;-70
2021/11/08 08:32:42;;;;;;;;;48.50;39.00;;;;;;;;5055334;28;45349;-69
2021/11/08 08:35:09;;;;;;;;;46.00;35.33;;;;;;;;5042105;28;45267;-70
2021/11/08 08:37:35;;;;;;;;;42.25;35.00;;;;;;;;5041033;28;46277;-70
2021/11/08 08:40:00;;;;;;;;;42.33;35.33;;;;;;;;5042560;28;46303;-70
2021/11/08 08:42:25;;;;;;;;;37.00;32.00;;;;;;;;5044324;28;45511;-70
2021/11/08 08:44:51;;;;;;;;;45.75;37.25;;;;;;;;5047848;28;45468;-70
2021/11/08 08:47:16;;;;;;;;;43.25;34.50;;;;;;;;5040822;28;45415;-69
2021/11/08 08:49:41;;;;;;;;;48.33;37.67;;;;;;;;5046098;28;45694;-69
2021/11/08 08:52:07;;;;;;;;;43.00;37.33;;;;;;;;5049097;28;45676;-69
2021/11/08 08:54:32;;;;;;;;;38.25;32.50;;;;;;;;5045286;28;45467;-69
2021/11/08 08:56:58;;;;;;;;;43.67;35.67;;;;;;;;5054644;28;45458;-69
2021/11/08 08:59:23;;;;;;;;;44.67;34.00;;;;;;;;5039693;28;45617;-70
2021/11/08 09:01:49;;;;;;;;;45.00;35.00;;;;;;;;5043197;28;45491;-70
2021/11/08 09:04:14;;;;;;;;;40.75;33.50;;;;;;;;5044870;28;45496;-69
2021/11/08 09:06:40;;;;;;;;;42.00;34.67;;;;;;;;5048604;28;45398;-70
2021/11/08 09:09:05;;;;;;;;;45.00;35.33;;;;;;;;5073940;28;45438;-69
2021/11/08 09:11:30;;;;;;;;;40.33;36.00;;;;;;;;5061246;27;45893;-69
2021/11/08 09:14:00;;;;;;;;;37.75;33.75;;;;;;;;5059317;28;45418;-69
2021/11/08 09:16:25;;;;;;;;;40.50;31.50;;;;;;;;5062890;28;45434;-69
2021/11/08 09:18:54;;;;;;;;;29.50;25.75;;;;;;;;5063233;28;45947;-70
2021/11/08 09:21:20;;;;;;;;;33.00;30.25;;;;;;;;5063691;28;45691;-69
2021/11/08 09:23:46;;;;;;;;;37.50;31.00;;;;;;;;5062957;28;45514;-69
2021/11/08 09:26:11;;;;;;;;;37.50;30.50;;;;;;;;5059624;28;45350;-70
2021/11/08 09:28:37;;;;;;;;;26.00;23.00;;;;;;;;5061093;28;45386;-70
2021/11/08 09:31:04;;;;;;;;;30.00;23.25;;;;;;;;5063347;28;45271;-70
2021/11/08 09:33:30;;;;;;;;;31.00;25.50;;;;;;;;5063127;28;45461;-69
2021/11/08 09:36:02;;;;;;;;;23.00;22.25;;;;;;;;5064132;28;45277;-70
2021/11/08 09:38:27;;;;;;;;;25.50;21.50;;;;;;;;5059509;28;46083;-70
2021/11/08 09:40:53;;;;;;;;;18.00;13.50;;;;;;;;5071810;28;45369;-70
2021/11/08 09:43:23;;;;;;;;;22.75;17.00;;;;;;;;5063267;28;45450;-70
2021/11/08 09:45:48;;;;;;;;;22.75;17.25;;;;;;;;5063615;28;45434;-70
2021/11/08 09:48:13;;;;;;;;;19.50;18.75;;;;;;;;5063023;28;45265;-70
2021/11/08 09:50:40;;;;;;;;;19.75;14.25;;;;;;;;5061696;28;45556;-70
2021/11/08 09:53:06;;;;;;;;;17.50;16.50;;;;;;;;5059326;28;45531;-70
2021/11/08 09:55:32;;;;;;;;;20.50;13.50;;;;;;;;5061570;28;45243;-70
2021/11/08 09:57:58;;;;;;;;;19.00;16.50;;;;;;;;5063267;28;45718;-70
2021/11/08 10:00:35;;;;;;;;;18.50;16.00;;;;;;;;5065344;28;45421;-70
2021/11/08 10:03:01;;;;;;;;;18.00;15.00;;;;;;;;5072937;28;45545;-70
2021/11/08 10:05:28;;;;;;;;;16.50;15.00;;;;;;;;5060252;28;45606;-70
2021/11/08 10:07:53;;;;;;;;;17.50;15.25;;;;;;;;5058501;28;46050;-70
2021/11/08 10:10:19;;;;;;;;;17.50;16.00;;;;;;;;5062556;28;45468;-70
2021/11/08 10:12:48;;;;;;;;;14.75;13.25;;;;;;;;5063140;28;45346;-70
2021/11/08 10:15:14;;;;;;;;;22.25;16.75;;;;;;;;5063153;28;45455;-70
2021/11/08 10:17:39;;;;;;;;;18.33;13.00;;;;;;;;5058539;28;45859;-70
2021/11/08 10:20:05;;;;;;;;;17.50;15.00;;;;;;;;5072686;28;45452;-70
2021/11/08 10:22:32;;;;;;;;;15.75;14.25;;;;;;;;5061431;28;45417;-70
2021/11/08 10:24:58;;;;;;;;;16.25;13.50;;;;;;;;5062997;28;45697;-70
2021/11/08 10:27:23;;;;;;;;;21.00;13.25;;;;;;;;5062774;28;46842;-69
2021/11/08 10:29:48;;;;;;;;;17.00;12.50;;;;;;;;5062564;28;45421;-70
2021/11/08 10:32:14;;;;;;;;;15.00;12.33;;;;;;;;5059907;28;45405;-70
2021/11/08 10:34:55;;;;;;;;;17.00;14.00;;;;;;;;5068672;28;45335;-70
2021/11/08 10:37:26;;;;;;;;;12.75;8.00;;;;;;;;5061067;28;46106;-70
2021/11/08 10:39:52;;;;;;;;;8.50;7.50;;;;;;;;5063063;28;45434;-70
2021/11/08 10:42:31;;;;;;;;;14.50;9.00;;;;;;;;5062903;27;45524;-70
2021/11/08 10:44:57;;;;;;;;;12.75;9.00;;;;;;;;5062620;28;45500;-70
2021/11/08 10:47:22;;;;;;;;;9.75;8.75;;;;;;;;5058436;28;45829;-69
2021/11/08 10:49:48;;;;;;;;;11.75;10.25;;;;;;;;5059104;28;45410;-70
2021/11/08 10:52:14;;;;;;;;;6.50;6.00;;;;;;;;5062232;28;45483;-69
2021/11/08 10:54:45;;;;;;;;;14.25;9.00;;;;;;;;5062600;28;45376;-69
2021/11/08 10:57:13;;;;;;;;;16.25;12.50;;;;;;;;5060556;28;46595;-69
2021/11/08 10:59:44;;;;;;;;;10.50;8.75;;;;;;;;5073557;28;45521;-70
2021/11/08 11:02:12;;;;;;;;;14.50;9.00;;;;;;;;5061440;28;45540;-69
2021/11/08 11:04:46;;;;;;;;;10.25;7.25;;;;;;;;5059280;28;45518;-69
2021/11/08 11:07:18;;;;;;;;;10.50;8.75;;;;;;;;5068740;28;46088;-69
2021/11/08 11:09:44;;;;;;;;;7.25;7.25;;;;;;;;5066514;27;45332;-69
2021/11/08 11:12:11;;;;;;;;;13.25;8.50;;;;;;;;5062792;28;45499;-70
2021/11/08 11:14:50;;;;;;;;;11.75;9.25;;;;;;;;5060132;28;45753;-69
2021/11/08 11:17:17;;;;;;;;;13.00;9.00;;;;;;;;5057357;28;46231;-69
2021/11/08 11:19:43;;;;;;;;;12.25;9.25;;;;;;;;5058903;28;45697;-69
2021/11/08 11:22:12;;;;;;;;;9.75;7.00;;;;;;;;5062305;27;45361;-69
2021/11/08 11:24:49;;;;;;;;;7.50;7.00;;;;;;;;5062197;28;45390;-70
2021/11/08 11:27:28;;;;;;;;;11.25;8.00;;;;;;;;5062174;28;46087;-69
2021/11/08 11:30:06;;;;;;;;;9.25;6.00;;;;;;;;5061694;28;45478;-69
2021/11/08 11:32:31;;;;;;;;;9.00;8.00;;;;;;;;5059521;28;45426;-69
2021/11/08 11:34:57;;;;;;;;;12.00;8.00;;;;;;;;5057450;28;45488;-69
2021/11/08 11:37:23;;;;;;;;;11.00;9.00;;;;;;;;5063522;28;45799;-70
2021/11/08 11:39:49;;;;;;;;;9.75;6.75;;;;;;;;5062318;28;45813;-69
2021/11/08 11:42:15;;;;;;;;;8.00;4.25;;;;;;;;5062158;28;45539;-70
2021/11/08 11:44:40;;;;;;;;;7.00;3.75;;;;;;;;5060256;28;45584;-69
2021/11/08 11:47:13;;;;;;;;;5.75;4.25;;;;;;;;5059528;28;46994;-70
2021/11/08 11:49:39;;;;;;;;;3.25;3.25;;;;;;;;5062487;28;45779;-69
2021/11/08 11:52:04;;;;;;;;;6.00;5.00;;;;;;;;5065358;28;45520;-70
2021/11/08 11:54:30;;;;;;;;;7.75;3.75;;;;;;;;5065333;28;45530;-69
2021/11/08 11:56:55;;;;;;;;;13.00;7.75;;;;;;;;5065444;28;47031;-70
2021/11/08 11:59:21;;;;;;;;;7.25;5.00;;;;;;;;5060913;28;45502;-70
2021/11/08 12:01:47;;;;;;;;;7.00;6.00;;;;;;;;5061473;28;45357;-69
2021/11/08 12:04:13;;;;;;;;;5.00;3.50;;;;;;;;5065113;28;45507;-69
2021/11/08 12:06:40;;;;;;;;;5.00;4.75;;;;;;;;5065236;28;45586;-69
2021/11/08 12:09:08;;;;;;;;;3.50;2.75;;;;;;;;5065626;28;45356;-69
2021/11/08 12:11:41;;;;;;;;;3.25;3.25;;;;;;;;5062749;28;45340;-69
2021/11/08 12:14:12;;;;;;;;;4.75;4.00;;;;;;;;5059781;28;45378;-69
2021/11/08 12:16:47;;;;;;;;;3.75;3.50;;;;;;;;5072794;28;45354;-70
2021/11/08 12:19:16;;;;;;;;;9.25;5.00;;;;;;;;5064968;28;45547;-69
2021/11/08 12:21:41;;;;;;;;;4.00;3.00;;;;;;;;5064915;27;45415;-69
2021/11/08 12:24:17;;;;;;;;;7.00;4.67;;;;;;;;5065344;28;45507;-70
2021/11/08 12:26:43;;;;;;;;;4.00;4.00;;;;;;;;5063475;28;46213;-70
2021/11/08 12:29:20;;;;;;;;;4.33;4.00;;;;;;;;5059941;28;45426;-69
2021/11/08 12:31:46;;;;;;;;;7.50;5.00;;;;;;;;5072857;28;45275;-69
2021/11/08 12:34:21;;;;;;;;;4.75;4.75;;;;;;;;5071720;27;45335;-69
2021/11/08 12:36:59;;;;;;;;;6.50;4.00;;;;;;;;5068240;28;46160;-69
2021/11/08 12:39:24;;;;;;;;;6.50;5.00;;;;;;;;5064495;28;45687;-70
2021/11/08 12:41:52;;;;;;;;;5.25;5.25;;;;;;;;5064016;28;45406;-70
2021/11/08 12:44:19;;;;;;;;;5.25;5.00;;;;;;;;5060329;28;45437;-69
2021/11/08 12:46:49;;;;;;;;;8.75;5.00;;;;;;;;5072296;28;46332;-69
2021/11/08 12:49:16;;;;;;;;;6.75;5.00;;;;;;;;5064383;28;45521;-69
2021/11/08 12:52:00;;;;;;;;;4.00;4.00;;;;;;;;5064750;27;45394;-69
2021/11/08 12:54:26;;;;;;;;;10.50;5.75;;;;;;;;5064864;28;45419;-69
2021/11/08 12:56:52;;;;;;;;;6.25;6.00;;;;;;;;5074998;28;45453;-69
2021/11/08 12:59:17;;;;;;;;;10.00;5.25;;;;;;;;5059805;28;45407;-69
2021/11/08 13:01:44;;;;;;;;;7.00;7.00;;;;;;;;5060922;28;45320;-69
2021/11/08 13:04:13;;;;;;;;;6.00;6.00;;;;;;;;5045895;28;45620;-69
2021/11/08 13:06:38;;;;;;;;;5.50;4.50;;;;;;;;5063799;28;47150;-70
2021/11/08 13:09:09;;;;;;;;;8.00;5.00;;;;;;;;5063877;28;45282;-69
2021/11/08 13:11:45;;;;;;;;;8.75;7.00;;;;;;;;5062104;28;45539;-69
2021/11/08 13:14:20;;;;;;;;;5.50;5.00;;;;;;;;5059385;28;45292;-70
2021/11/08 13:16:46;;;;;;;;;7.00;5.75;;;;;;;;5071943;28;46252;-69
2021/11/08 13:19:12;;;;;;;;;8.67;5.00;;;;;;;;5071490;28;45454;-69
2021/11/08 13:21:38;;;;;;;;;4.75;4.25;;;;;;;;5068307;28;45560;-69
2021/11/08 13:24:04;;;;;;;;;7.50;5.00;;;;;;;;5064071;28;45547;-69
2021/11/08 13:26:29;;;;;;;;;6.00;5.25;;;;;;;;5060757;27;46890;-69
2021/11/08 13:28:55;;;;;;;;;5.00;4.00;;;;;;;;5058757;28;45415;-69
2021/11/08 13:31:20;;;;;;;;;6.75;4.00;;;;;;;;5063361;28;45599;-69
2021/11/08 13:33:47;;;;;;;;;7.67;5.00;;;;;;;;5067052;27;45649;-69
2021/11/08 13:36:13;;;;;;;;;9.50;5.00;;;;;;;;5072094;28;46356;-69
2021/11/08 13:38:44;;;;;;;;;4.50;3.00;;;;;;;;5068047;28;45693;-69
2021/11/08 13:41:09;;;;;;;;;4.00;3.00;;;;;;;;5058613;28;45564;-69
2021/11/08 13:43:39;;;;;;;;;5.00;5.00;;;;;;;;5061391;28;45474;-69
2021/11/08 13:46:09;;;;;;;;;3.75;2.00;;;;;;;;5063163;28;46955;-69
2021/11/08 13:48:36;;;;;;;;;5.00;4.00;;;;;;;;5063478;28;45759;-69
2021/11/08 13:51:06;;;;;;;;;7.50;5.00;;;;;;;;5063621;28;45566;-69
2021/11/08 13:53:36;;;;;;;;;3.25;3.00;;;;;;;;5060600;28;45536;-69
2021/11/08 13:56:04;;;;;;;;;3.50;3.00;;;;;;;;5058841;28;46273;-69
2021/11/08 13:58:30;;;;;;;;;8.25;3.00;;;;;;;;5060095;28;45482;-69
2021/11/08 14:01:00;;;;;;;;;4.75;3.00;;;;;;;;5068093;28;45368;-69
2021/11/08 14:03:25;;;;;;;;;3.25;2.50;;;;;;;;5070022;27;45487;-69
2021/11/08 14:05:51;;;;;;;;;4.00;2.00;;;;;;;;5063241;28;45448;-69
2021/11/08 14:08:21;;;;;;;;;4.00;2.00;;;;;;;;5063611;27;45803;-69
2021/11/08 14:10:51;;;;;;;;;5.25;3.00;;;;;;;;5070315;27;45466;-69
2021/11/08 14:13:16;;;;;;;;;5.00;3.50;;;;;;;;5070245;28;45351;-69
2021/11/08 14:15:41;;;;;;;;;4.33;2.00;;;;;;;;5067390;28;45435;-69
2021/11/08 14:18:06;;;;;;;;;5.33;2.00;;;;;;;;5062854;28;45464;-69
2021/11/08 14:20:31;;;;;;;;;5.33;3.00;;;;;;;;5060685;28;45359;-69
2021/11/08 14:22:57;;;;;;;;;5.67;4.33;;;;;;;;5058220;27;45292;-69
2021/11/08 14:25:22;;;;;;;;;3.00;3.00;;;;;;;;5062090;28;45413;-69
2021/11/08 14:27:47;;;;;;;;;4.67;3.00;;;;;;;;5062921;28;45494;-68
2021/11/08 14:30:20;;;;;;;;;6.00;3.67;;;;;;;;5063065;27;45444;-69
2021/11/08 14:32:46;;;;;;;;;5.00;4.75;;;;;;;;5062336;28;45296;-69
2021/11/08 14:35:16;;;;;;;;;6.25;4.25;;;;;;;;5058051;28;45993;-69
2021/11/08 14:37:49;;;;;;;;;10.75;6.00;;;;;;;;5063333;28;45469;-69
2021/11/08 14:40:17;;;;;;;;;1.50;1.00;;;;;;;;5060691;28;45448;-69
2021/11/08 14:42:43;;;;;;;;;3.75;3.50;;;;;;;;5062819;28;45479;-69
2021/11/08 14:45:16;;;;;;;;;7.75;4.00;;;;;;;;5062476;28;46101;-69
2021/11/08 14:47:41;;;;;;;;;9.50;7.25;;;;;;;;5061867;28;45846;-69
2021/11/08 14:50:08;;;;;;;;;11.33;8.67;;;;;;;;5058214;28;45256;-69
2021/11/08 14:52:33;;;;;;;;;14.00;7.75;;;;;;;;5069859;28;45450;-69
2021/11/08 14:54:59;;;;;;;;;11.00;8.33;;;;;;;;5064294;27;46344;-69
2021/11/08 14:57:24;;;;;;;;;7.00;4.50;;;;;;;;5062504;28;45311;-69
2021/11/08 14:59:54;;;;;;;;;5.25;4.00;;;;;;;;5062755;28;45465;-68
2021/11/08 15:02:23;;;;;;;;;5.00;3.00;;;;;;;;5058334;28;45343;-69
2021/11/08 15:04:49;;;;;;;;;8.25;4.00;;;;;;;;5058197;28;45378;-69
2021/11/08 15:07:16;;;;;;;;;6.50;4.00;;;;;;;;5062426;28;45544;-69
2021/11/08 15:09:51;;;;;;;;;5.50;4.00;;;;;;;;5066046;28;45559;-69
2021/11/08 15:12:20;;;;;;;;;17.50;14.75;;;;;;;;5062359;28;45558;-68
2021/11/08 15:14:47;;;;;;;;;7.00;3.75;;;;;;;;5061942;28;46160;-69
2021/11/08 15:17:12;;;;;;;;;6.25;4.25;;;;;;;;5057327;28;45451;-69
2021/11/08 15:19:43;;;;;;;;;4.75;4.00;;;;;;;;5059583;28;45405;-70
2021/11/08 15:22:09;;;;;;;;;6.00;4.00;;;;;;;;5064297;27;45295;-69
2021/11/08 15:24:34;;;;;;;;;7.67;5.67;;;;;;;;5066194;28;46481;-69
2021/11/08 15:26:59;;;;;;;;;10.33;5.67;;;;;;;;5065673;28;45375;-68
2021/11/08 15:29:29;;;;;;;;;8.00;4.75;;;;;;;;5061402;28;45311;-71
2021/11/08 15:32:09;;;;;;;;;8.75;5.00;;;;;;;;5074443;28;45252;-71
2021/11/08 15:34:35;;;;;;;;;9.00;5.00;;;;;;;;5061859;28;46298;-71
2021/11/08 15:37:01;;;;;;;;;6.00;4.00;;;;;;;;5070387;28;45385;-71
2021/11/08 15:39:28;;;;;;;;;5.00;4.75;;;;;;;;5048762;28;45683;-70
2021/11/08 15:42:05;;;;;;;;;4.00;3.00;;;;;;;;5065524;28;45303;-71
2021/11/08 15:44:30;;;;;;;;;3.75;3.75;;;;;;;;5062776;28;46012;-70
2021/11/08 15:46:56;;;;;;;;;4.50;4.00;;;;;;;;5060989;28;45361;-70
2021/11/08 15:49:22;;;;;;;;;4.75;4.75;;;;;;;;5064944;27;45484;-71
2021/11/08 15:51:47;;;;;;;;;4.50;4.00;;;;;;;;5065001;28;45413;-70
2021/11/08 15:54:15;;;;;;;;;5.67;3.00;;;;;;;;5047013;28;47339;-71
2021/11/08 15:56:41;;;;;;;;;3.50;3.50;;;;;;;;5064075;28;45782;-70
2021/11/08 15:59:09;;;;;;;;;5.25;3.00;;;;;;;;5060458;28;45497;-71
2021/11/08 16:01:35;;;;;;;;;4.50;4.00;;;;;;;;5062747;28;45524;-70
2021/11/08 16:04:01;;;;;;;;;7.50;4.25;;;;;;;;5064920;28;45579;-71
2021/11/08 16:06:26;;;;;;;;;4.50;3.25;;;;;;;;5064695;28;45744;-71